Time;durP1;ratioP1;P1;durP2;ratioP2;P2;SDS_P1;SDS_P2;PMS_P1;PMS_P2;Temp;Humidity;BMP_temperature;BMP_pressure;BME280_temperature;BME280_humidity;BME280_pressure;Samples;Min_cycle;Max_cycle;Signal;HPM_P1;HPM_P2
2024/04/02 00:01:05;;;;;;;;;;;24.30;36.70;;;;;;5075131;28;19924;-57
2024/04/02 00:03:31;;;;;;;;;;;24.30;36.80;;;;;;5075081;28;19924;-57
2024/04/02 00:05:56;;;;;;;;;;;24.30;36.80;;;;;;5074823;28;20342;-58
2024/04/02 00:08:22;;;;;;;;;;;24.30;36.80;;;;;;5075285;28;19972;-57
2024/04/02 00:10:48;;;;;;;;;;;24.30;36.80;;;;;;5074979;28;19924;-58
2024/04/02 00:13:14;;;;;;;;;;;24.20;36.90;;;;;;5073642;28;20360;-57
2024/04/02 00:15:47;;;;;;;;;;;24.20;36.90;;;;;;5074655;28;19970;-58
2024/04/02 00:18:15;;;;;;;;;;;24.20;37.00;;;;;;5074950;28;19948;-58
2024/04/02 00:20:42;;;;;;;;;;;24.10;36.90;;;;;;5057904;28;19924;-57
2024/04/02 00:23:08;;;;;;;;;;;24.10;37.00;;;;;;5074518;28;20392;-57
2024/04/02 00:25:34;;;;;;;;;;;24.10;37.00;;;;;;5074741;28;19977;-57
2024/04/02 00:28:00;;;;;;;;;;;24.10;37.10;;;;;;5074448;28;19932;-57
2024/04/02 00:30:27;;;;;;;;;;;24.10;37.70;;;;;;5074530;28;19924;-57
2024/04/02 00:32:54;;;;;;;;;;;24.10;37.10;;;;;;5074412;28;19924;-57
2024/04/02 00:35:20;;;;;;;;;;;24.10;37.20;;;;;;5074315;28;19931;-57
2024/04/02 00:37:47;;;;;;;;;;;24.10;37.20;;;;;;5074575;28;19929;-57
2024/04/02 00:40:13;;;;;;;;;;;24.10;37.30;;;;;;5074541;28;19950;-58
2024/04/02 00:42:39;;;;;;;;;;;24.10;37.30;;;;;;5074463;28;19929;-57
2024/04/02 00:45:05;;;;;;;;;;;24.10;37.30;;;;;;5074283;28;20289;-58
2024/04/02 00:47:34;;;;;;;;;;;24.10;37.20;;;;;;5073845;28;19924;-58
2024/04/02 00:50:00;;;;;;;;;;;24.10;37.20;;;;;;5074465;28;19931;-57
2024/04/02 00:52:26;;;;;;;;;;;24.10;37.20;;;;;;5074262;28;19932;-57
2024/04/02 00:54:53;;;;;;;;;;;24.00;37.20;;;;;;5074348;28;19928;-57
2024/04/02 00:57:18;;;;;;;;;;;24.00;37.20;;;;;;5074201;28;19931;-57
2024/04/02 00:59:44;;;;;;;;;;;24.10;37.20;;;;;;5074129;28;20344;-57
2024/04/02 01:02:10;;;;;;;;;;;24.00;37.20;;;;;;5073917;28;20386;-57
2024/04/02 01:04:36;;;;;;;;;;;24.00;37.20;;;;;;5073826;28;19924;-57
2024/04/02 01:07:03;;;;;;;;;;;24.00;37.20;;;;;;5073796;28;19970;-57
2024/04/02 01:09:30;;;;;;;;;;;24.10;37.30;;;;;;5073855;28;19931;-58
2024/04/02 01:11:56;;;;;;;;;;;24.00;37.20;;;;;;5073552;28;19978;-57
2024/04/02 01:14:22;;;;;;;;;;;24.00;37.20;;;;;;5073920;28;19929;-57
2024/04/02 01:16:48;;;;;;;;;;;24.00;37.30;;;;;;5073383;28;19963;-57
2024/04/02 01:19:16;;;;;;;;;;;24.00;37.30;;;;;;5073650;28;19939;-57
2024/04/02 01:21:42;;;;;;;;;;;24.00;37.30;;;;;;5073386;28;19928;-58
2024/04/02 01:24:08;;;;;;;;;;;24.00;37.40;;;;;;5073347;28;19931;-57
2024/04/02 01:26:34;;;;;;;;;;;24.00;37.40;;;;;;5073460;28;19932;-58
2024/04/02 01:29:02;;;;;;;;;;;24.00;37.40;;;;;;5073651;28;19925;-57
2024/04/02 01:31:28;;;;;;;;;;;23.90;37.40;;;;;;5072954;28;19924;-58
2024/04/02 01:33:54;;;;;;;;;;;23.90;37.40;;;;;;5073588;28;19924;-57
2024/04/02 01:36:20;;;;;;;;;;;23.90;37.40;;;;;;5073380;28;19925;-57
2024/04/02 01:38:46;;;;;;;;;;;23.90;37.50;;;;;;5073552;28;19924;-57
2024/04/02 01:41:12;;;;;;;;;;;23.90;37.50;;;;;;5073043;28;19950;-57
2024/04/02 01:43:37;;;;;;;;;;;23.90;37.50;;;;;;5056198;28;19936;-58
2024/04/02 01:46:03;;;;;;;;;;;23.90;37.50;;;;;;5073132;28;19975;-57
2024/04/02 01:48:29;;;;;;;;;;;23.90;37.60;;;;;;5073255;28;20369;-57
2024/04/02 01:50:55;;;;;;;;;;;23.90;37.60;;;;;;5072663;28;19932;-57
2024/04/02 01:53:21;;;;;;;;;;;23.90;37.50;;;;;;5073101;28;19924;-57
2024/04/02 01:55:47;;;;;;;;;;;23.90;37.50;;;;;;5072796;28;20311;-58
2024/04/02 01:58:13;;;;;;;;;;;23.90;37.50;;;;;;5072932;28;19925;-57
2024/04/02 02:00:40;;;;;;;;;;;23.90;37.60;;;;;;5072981;28;19925;-57
2024/04/02 02:03:05;;;;;;;;;;;23.90;37.50;;;;;;5072541;28;19925;-58
2024/04/02 02:05:31;;;;;;;;;;;23.90;37.60;;;;;;5072468;28;19924;-57
2024/04/02 02:07:57;;;;;;;;;;;23.90;37.50;;;;;;5055896;28;19936;-57
2024/04/02 02:10:23;;;;;;;;;;;23.90;37.60;;;;;;5072781;28;19928;-57
2024/04/02 02:12:49;;;;;;;;;;;23.90;37.60;;;;;;5072774;28;19929;-58
2024/04/02 02:15:15;;;;;;;;;;;23.90;37.60;;;;;;5072918;28;19924;-58
2024/04/02 02:17:42;;;;;;;;;;;23.90;37.60;;;;;;5072331;28;19978;-59
2024/04/02 02:20:08;;;;;;;;;;;23.90;37.60;;;;;;5072645;28;19925;-57
2024/04/02 02:22:34;;;;;;;;;;;23.90;37.60;;;;;;5055815;28;20457;-57
2024/04/02 02:25:00;;;;;;;;;;;23.80;37.60;;;;;;5072703;28;20297;-57
2024/04/02 02:27:26;;;;;;;;;;;23.90;37.60;;;;;;5072288;28;19924;-57
2024/04/02 02:29:52;;;;;;;;;;;23.80;37.60;;;;;;5072670;28;20329;-57
2024/04/02 02:32:18;;;;;;;;;;;23.80;37.70;;;;;;5072443;28;19979;-57
2024/04/02 02:34:44;;;;;;;;;;;23.80;37.70;;;;;;5072153;28;19979;-58
2024/04/02 02:37:10;;;;;;;;;;;23.80;37.70;;;;;;5071610;28;19974;-57
2024/04/02 02:39:35;;;;;;;;;;;23.80;37.70;;;;;;5072423;28;19924;-58
2024/04/02 02:42:01;;;;;;;;;;;23.80;37.70;;;;;;5055742;28;19924;-57
2024/04/02 02:44:27;;;;;;;;;;;23.80;37.70;;;;;;5072445;28;20635;-57
2024/04/02 02:46:53;;;;;;;;;;;23.80;37.70;;;;;;5072049;28;20319;-57
2024/04/02 02:49:19;;;;;;;;;;;23.80;37.70;;;;;;5072346;28;19924;-57
2024/04/02 02:51:45;;;;;;;;;;;23.90;37.80;;;;;;5072252;28;19928;-57
2024/04/02 02:54:10;;;;;;;;;;;23.80;37.70;;;;;;5072065;28;19924;-57
2024/04/02 02:56:36;;;;;;;;;;;23.80;37.80;;;;;;5072029;28;19932;-57
2024/04/02 02:59:02;;;;;;;;;;;23.80;37.80;;;;;;5072449;28;20042;-58
2024/04/02 03:01:28;;;;;;;;;;;23.80;37.80;;;;;;5071662;28;19925;-57
2024/04/02 03:03:54;;;;;;;;;;;23.80;37.80;;;;;;5071711;28;19931;-57
2024/04/02 03:06:20;;;;;;;;;;;23.80;37.80;;;;;;5072066;28;19925;-57
2024/04/02 03:08:46;;;;;;;;;;;23.80;37.80;;;;;;5071978;28;20408;-57
2024/04/02 03:11:11;;;;;;;;;;;23.80;37.80;;;;;;5071313;28;19931;-57
2024/04/02 03:13:37;;;;;;;;;;;23.80;37.80;;;;;;5071411;28;19932;-57
2024/04/02 03:16:04;;;;;;;;;;;23.80;37.80;;;;;;5052754;28;19925;-57
2024/04/02 03:18:30;;;;;;;;;;;23.70;37.70;;;;;;5062646;28;19925;-57
2024/04/02 03:20:56;;;;;;;;;;;23.80;37.80;;;;;;5056711;28;19929;-58
2024/04/02 03:23:22;;;;;;;;;;;23.80;37.80;;;;;;5051919;28;19970;-57
2024/04/02 03:25:51;;;;;;;;;;;23.80;37.80;;;;;;5051979;28;19932;-57
2024/04/02 03:28:18;;;;;;;;;;;23.70;37.80;;;;;;5051647;28;19935;-57
2024/04/02 03:30:46;;;;;;;;;;;23.70;37.80;;;;;;5051190;28;20291;-57
2024/04/02 03:33:12;;;;;;;;;;;23.70;37.80;;;;;;5035395;28;19925;-57
2024/04/02 03:35:38;;;;;;;;;;;23.70;37.80;;;;;;5056468;28;20346;-57
2024/04/02 03:38:04;;;;;;;;;;;23.80;37.90;;;;;;5061107;28;19931;-58
2024/04/02 03:40:30;;;;;;;;;;;23.70;37.80;;;;;;5043829;28;19930;-57
2024/04/02 03:42:57;;;;;;;;;;;23.70;37.90;;;;;;5060349;28;19925;-57
2024/04/02 03:45:22;;;;;;;;;;;23.70;37.90;;;;;;5060974;28;19924;-57
2024/04/02 03:47:48;;;;;;;;;;;23.70;37.90;;;;;;5063615;28;19982;-57
2024/04/02 03:50:14;;;;;;;;;;;23.70;38.00;;;;;;5063865;28;19931;-57
2024/04/02 03:52:40;;;;;;;;;;;23.70;38.00;;;;;;5065321;28;19924;-57
2024/04/02 03:55:06;;;;;;;;;;;23.70;38.00;;;;;;5073850;28;19924;-57
2024/04/02 03:57:32;;;;;;;;;;;23.70;38.00;;;;;;5075149;28;20332;-57
2024/04/02 03:59:57;;;;;;;;;;;23.70;38.10;;;;;;5075286;28;20366;-57
2024/04/02 04:02:23;;;;;;;;;;;23.70;38.10;;;;;;5074979;28;20374;-57
2024/04/02 04:04:49;;;;;;;;;;;23.70;38.10;;;;;;5058326;28;19924;-57
2024/04/02 04:07:15;;;;;;;;;;;23.70;38.10;;;;;;5072037;28;19936;-57
2024/04/02 04:09:41;;;;;;;;;;;23.70;38.10;;;;;;5065494;28;19925;-57
2024/04/02 04:12:07;;;;;;;;;;;23.70;38.10;;;;;;5064970;28;19935;-57
2024/04/02 04:14:33;;;;;;;;;;;23.70;38.10;;;;;;5064584;28;19990;-57
2024/04/02 04:16:58;;;;;;;;;;;23.70;38.10;;;;;;5063201;28;19929;-57
2024/04/02 04:19:24;;;;;;;;;;;23.70;38.00;;;;;;5065094;28;19934;-57
2024/04/02 04:21:50;;;;;;;;;;;23.70;38.00;;;;;;5063102;28;19925;-57
2024/04/02 04:24:16;;;;;;;;;;;23.70;38.10;;;;;;5064070;28;20302;-57
2024/04/02 04:26:42;;;;;;;;;;;23.70;38.00;;;;;;5063569;28;19948;-57
2024/04/02 04:29:08;;;;;;;;;;;23.70;38.00;;;;;;5064969;28;20271;-57
2024/04/02 04:31:34;;;;;;;;;;;23.70;38.00;;;;;;5063141;28;19925;-57
2024/04/02 04:34:00;;;;;;;;;;;23.70;38.00;;;;;;5068873;28;19993;-57
2024/04/02 04:36:26;;;;;;;;;;;23.70;38.00;;;;;;5074366;28;20369;-57
2024/04/02 04:38:52;;;;;;;;;;;23.70;38.00;;;;;;5065434;28;20390;-57
2024/04/02 04:41:17;;;;;;;;;;;23.70;37.90;;;;;;5043440;28;20059;-57
2024/04/02 04:43:43;;;;;;;;;;;23.70;37.90;;;;;;5063386;28;20285;-57
2024/04/02 04:46:09;;;;;;;;;;;23.80;37.90;;;;;;5062579;28;19936;-60
2024/04/02 04:48:35;;;;;;;;;;;23.80;38.40;;;;;;5070477;28;19925;-57
2024/04/02 04:51:02;;;;;;;;;;;23.80;37.80;;;;;;5054048;28;19979;-58
2024/04/02 04:53:28;;;;;;;;;;;23.70;37.80;;;;;;5053696;28;20408;-58
2024/04/02 04:55:58;;;;;;;;;;;23.80;38.30;;;;;;5053727;28;19925;-58
2024/04/02 04:58:24;;;;;;;;;;;23.80;37.70;;;;;;5053203;28;19924;-58
2024/04/02 05:00:50;;;;;;;;;;;23.80;37.70;;;;;;5053459;28;19925;-57
2024/04/02 05:03:15;;;;;;;;;;;23.80;37.70;;;;;;5069962;28;20279;-58
2024/04/02 05:05:41;;;;;;;;;;;23.80;37.70;;;;;;5052473;28;19975;-58
2024/04/02 05:08:23;;;;;;;;;;;23.80;37.70;;;;;;5052600;28;19929;-58
2024/04/02 05:10:49;;;;;;;;;;;23.80;37.70;;;;;;5058133;28;19924;-58
2024/04/02 05:13:15;;;;;;;;;;;23.80;37.70;;;;;;5072119;28;19924;-58
2024/04/02 05:15:42;;;;;;;;;;;23.80;37.90;;;;;;5071358;28;19928;-57
2024/04/02 05:18:08;;;;;;;;;;;23.90;37.60;;;;;;5072406;28;19928;-58
2024/04/02 05:20:33;;;;;;;;;;;23.90;37.60;;;;;;5065950;28;19990;-58
2024/04/02 05:23:00;;;;;;;;;;;23.90;37.60;;;;;;5047314;28;19975;-58
2024/04/02 05:25:26;;;;;;;;;;;23.90;37.60;;;;;;5060136;28;19932;-62
2024/04/02 05:27:52;;;;;;;;;;;23.90;38.20;;;;;;5062596;28;19970;-59
2024/04/02 05:30:17;;;;;;;;;;;24.00;37.80;;;;;;5062998;28;19935;-59
2024/04/02 05:32:43;;;;;;;;;;;24.00;37.90;;;;;;5060707;28;19935;-59
2024/04/02 05:35:09;;;;;;;;;;;24.00;37.80;;;;;;5062423;28;20363;-59
2024/04/02 05:37:35;;;;;;;;;;;24.10;37.90;;;;;;5062810;28;19928;-59
2024/04/02 05:40:04;;;;;;;;;;;24.10;37.80;;;;;;5047382;28;19929;-60
2024/04/02 05:42:30;;;;;;;;;;;24.10;37.80;;;;;;5063800;28;19928;-60
2024/04/02 05:44:56;;;;;;;;;;;24.20;38.00;;;;;;5058669;28;19925;-58
2024/04/02 05:47:22;;;;;;;;;;;24.20;38.10;;;;;;5058136;28;19986;-60
2024/04/02 05:49:48;;;;;;;;;;;24.30;38.20;;;;;;5059749;28;19928;-59
2024/04/02 05:52:14;;;;;;;;;;;24.20;38.20;;;;;;5063108;28;19928;-59
2024/04/02 05:54:40;;;;;;;;;;;24.30;38.10;;;;;;5057120;28;20374;-59
2024/04/02 05:57:06;;;;;;;;;;;24.30;38.10;;;;;;5063398;28;19978;-59
2024/04/02 05:59:32;;;;;;;;;;;24.40;38.00;;;;;;5043921;28;19932;-59
2024/04/02 06:01:57;;;;;;;;;;;24.40;37.90;;;;;;5058475;28;19930;-59
2024/04/02 06:04:23;;;;;;;;;;;24.50;37.90;;;;;;5060849;28;19924;-60
2024/04/02 06:06:49;;;;;;;;;;;24.50;37.90;;;;;;5060144;28;21192;-59
2024/04/02 06:09:16;;;;;;;;;;;24.50;38.20;;;;;;5053562;28;19948;-60
2024/04/02 06:11:42;;;;;;;;;;;24.50;38.50;;;;;;5059353;28;19932;-59
2024/04/02 06:14:07;;;;;;;;;;;24.60;38.50;;;;;;5060022;28;19939;-62
2024/04/02 06:16:33;;;;;;;;;;;24.60;38.30;;;;;;5060558;28;19976;-60
2024/04/02 06:18:59;;;;;;;;;;;24.70;38.40;;;;;;5054870;28;19939;-61
2024/04/02 06:21:25;;;;;;;;;;;24.70;38.40;;;;;;5056318;28;19928;-60
2024/04/02 06:23:51;;;;;;;;;;;24.70;38.30;;;;;;5060941;28;19924;-61
2024/04/02 06:26:18;;;;;;;;;;;24.70;38.20;;;;;;5061455;28;20337;-62
2024/04/02 06:28:44;;;;;;;;;;;24.70;38.00;;;;;;5051272;28;20298;-63
2024/04/02 06:31:10;;;;;;;;;;;24.80;37.90;;;;;;5057422;28;19936;-59
2024/04/02 06:33:36;;;;;;;;;;;24.80;37.90;;;;;;5061231;28;19928;-59
2024/04/02 06:36:02;;;;;;;;;;;24.90;37.90;;;;;;5057593;28;19950;-57
2024/04/02 06:38:27;;;;;;;;;;;24.80;37.80;;;;;;5056596;28;20015;-58
2024/04/02 06:40:53;;;;;;;;;;;24.90;37.70;;;;;;5060669;28;20407;-57
2024/04/02 06:43:19;;;;;;;;;;;24.90;37.50;;;;;;5056318;28;19930;-58
2024/04/02 06:45:55;;;;;;;;;;;24.90;37.40;;;;;;5053703;28;19959;-58
2024/04/02 06:48:21;;;;;;;;;;;24.90;37.40;;;;;;5054694;28;20450;-59
2024/04/02 06:51:01;;;;;;;;;;;25.00;37.40;;;;;;5060103;28;19933;-59
2024/04/02 06:53:26;;;;;;;;;;;25.00;37.40;;;;;;5058471;28;20261;-61
2024/04/02 06:55:52;;;;;;;;;;;25.00;37.40;;;;;;5054909;28;19931;-58
2024/04/02 06:58:19;;;;;;;;;;;25.10;37.40;;;;;;5057084;28;20294;-60
2024/04/02 07:00:45;;;;;;;;;;;25.10;37.40;;;;;;5041083;28;19929;-60
2024/04/02 07:03:14;;;;;;;;;;;25.10;37.40;;;;;;5054389;28;20076;-60
2024/04/02 07:05:40;;;;;;;;;;;25.10;37.40;;;;;;5062566;28;20374;-61
2024/04/02 07:08:06;;;;;;;;;;;25.20;37.60;;;;;;5056970;28;19986;-61
2024/04/02 07:10:31;;;;;;;;;;;25.20;37.50;;;;;;5058364;28;19929;-62
2024/04/02 07:12:57;;;;;;;;;;;25.20;37.60;;;;;;5057861;28;20035;-60
2024/04/02 07:15:23;;;;;;;;;;;25.30;37.60;;;;;;5040345;28;19928;-60
2024/04/02 07:17:49;;;;;;;;;;;25.30;37.60;;;;;;5058441;28;19932;-62
2024/04/02 07:20:15;;;;;;;;;;;25.30;37.50;;;;;;5055918;28;20286;-62
2024/04/02 07:22:41;;;;;;;;;;;25.30;37.30;;;;;;5031538;28;19932;-58
2024/04/02 07:25:07;;;;;;;;;;;25.30;37.20;;;;;;5057497;28;19939;-61
2024/04/02 07:27:33;;;;;;;;;;;25.30;37.20;;;;;;5063311;28;20332;-62
2024/04/02 07:29:59;;;;;;;;;;;25.40;37.20;;;;;;5060780;28;19955;-64
2024/04/02 07:32:25;;;;;;;;;;;25.40;37.10;;;;;;5062920;28;19924;-65
2024/04/02 07:34:51;;;;;;;;;;;25.50;37.10;;;;;;5060087;28;19933;-65
2024/04/02 07:37:17;;;;;;;;;;;25.50;36.90;;;;;;5041710;28;20431;-65
2024/04/02 07:39:43;;;;;;;;;;;25.50;36.80;;;;;;5029184;28;19994;-64
2024/04/02 07:42:09;;;;;;;;;;;25.50;36.30;;;;;;5059576;28;19928;-62
2024/04/02 07:44:35;;;;;;;;;;;25.50;36.70;;;;;;5062116;28;19980;-62
2024/04/02 07:47:00;;;;;;;;;;;25.50;36.70;;;;;;5048129;28;20381;-62
2024/04/02 07:49:26;;;;;;;;;;;25.50;36.80;;;;;;5061167;28;19933;-63
2024/04/02 07:51:52;;;;;;;;;;;25.50;36.70;;;;;;5063102;28;19931;-63
2024/04/02 07:54:18;;;;;;;;;;;25.60;36.70;;;;;;5055711;28;19936;-64
2024/04/02 07:56:44;;;;;;;;;;;25.60;36.60;;;;;;5064802;28;19924;-63
2024/04/02 07:59:10;;;;;;;;;;;25.60;36.30;;;;;;5061765;28;19964;-62
2024/04/02 08:01:35;;;;;;;;;;;25.60;36.40;;;;;;5048948;28;20298;-67
2024/04/02 08:04:01;;;;;;;;;;;25.60;36.40;;;;;;5063326;28;19935;-65
2024/04/02 08:06:27;;;;;;;;;;;25.50;36.50;;;;;;5045825;28;19948;-62
2024/04/02 08:08:53;;;;;;;;;;;25.60;36.60;;;;;;5042512;28;19968;-63
2024/04/02 08:11:20;;;;;;;;;;;25.50;36.60;;;;;;5058758;28;20267;-62
2024/04/02 08:13:46;;;;;;;;;;;25.60;36.70;;;;;;5063910;28;19959;-63
2024/04/02 08:16:17;;;;;;;;;;;25.60;36.70;;;;;;5059301;28;20373;-61
2024/04/02 08:18:44;;;;;;;;;;;25.60;36.70;;;;;;5079064;28;19925;-66
2024/04/02 08:21:10;;;;;;;;;;;25.60;36.60;;;;;;5064252;28;20401;-63
2024/04/02 08:23:36;;;;;;;;;;;25.60;36.60;;;;;;5060944;28;19928;-61
2024/04/02 08:26:02;;;;;;;;;;;25.60;36.70;;;;;;5063534;28;19939;-61
2024/04/02 08:28:31;;;;;;;;;;;25.60;36.70;;;;;;5041171;28;19932;-61
2024/04/02 08:30:57;;;;;;;;;;;25.60;36.60;;;;;;5062010;28;19925;-62
2024/04/02 08:33:23;;;;;;;;;;;25.60;36.60;;;;;;5057657;28;19925;-60
2024/04/02 08:35:49;;;;;;;;;;;25.60;36.60;;;;;;5058133;28;19929;-60
2024/04/02 08:38:15;;;;;;;;;;;25.70;36.70;;;;;;5058469;28;19936;-62
2024/04/02 08:40:41;;;;;;;;;;;25.70;36.60;;;;;;5058902;28;19932;-64
2024/04/02 08:43:08;;;;;;;;;;;25.70;36.80;;;;;;5065315;28;19928;-61
2024/04/02 08:45:37;;;;;;;;;;;25.60;36.90;;;;;;5065519;28;19940;-61
2024/04/02 08:48:04;;;;;;;;;;;25.60;36.80;;;;;;5057186;28;19986;-61
2024/04/02 08:50:30;;;;;;;;;;;25.60;36.90;;;;;;5056665;28;19925;-62
2024/04/02 08:52:56;;;;;;;;;;;25.60;36.90;;;;;;5060200;28;19929;-62
2024/04/02 08:55:22;;;;;;;;;;;25.60;36.90;;;;;;5064138;28;20403;-62
2024/04/02 08:57:49;;;;;;;;;;;25.60;37.10;;;;;;5059911;28;19978;-64
2024/04/02 09:00:16;;;;;;;;;;;25.60;37.70;;;;;;5064412;28;19925;-64
2024/04/02 09:02:43;;;;;;;;;;;25.60;37.60;;;;;;5061950;28;19955;-62
2024/04/02 09:05:09;;;;;;;;;;;25.60;37.20;;;;;;5063628;28;19929;-62
2024/04/02 09:07:35;;;;;;;;;;;25.50;37.20;;;;;;5066653;28;20912;-62
2024/04/02 09:10:01;;;;;;;;;;;25.60;37.20;;;;;;5064121;28;20432;-63
2024/04/02 09:12:27;;;;;;;;;;;25.60;37.10;;;;;;5061086;28;19931;-62
2024/04/02 09:14:53;;;;;;;;;;;25.60;37.10;;;;;;5064357;28;19932;-62
2024/04/02 09:17:18;;;;;;;;;;;25.70;37.10;;;;;;5061777;28;19940;-63
2024/04/02 09:19:44;;;;;;;;;;;25.70;37.60;;;;;;5063768;28;19928;-62
2024/04/02 09:22:11;;;;;;;;;;;25.70;37.00;;;;;;5060884;28;20193;-61
2024/04/02 09:24:37;;;;;;;;;;;25.70;37.00;;;;;;5071556;28;19979;-61
2024/04/02 09:27:03;;;;;;;;;;;25.70;37.00;;;;;;5064992;28;19928;-61
2024/04/02 09:29:29;;;;;;;;;;;25.70;37.00;;;;;;5062813;28;19928;-61
2024/04/02 09:31:57;;;;;;;;;;;25.80;37.00;;;;;;5048477;28;19976;-61
2024/04/02 09:34:23;;;;;;;;;;;25.80;36.90;;;;;;5057601;28;19925;-61
2024/04/02 09:36:56;;;;;;;;;;;25.90;36.70;;;;;;5057682;28;19935;-60
2024/04/02 09:39:22;;;;;;;;;;;25.90;36.50;;;;;;5066478;28;19948;-60
2024/04/02 09:41:49;;;;;;;;;;;26.00;36.50;;;;;;5060630;28;19929;-61
2024/04/02 09:44:15;;;;;;;;;;;26.00;36.50;;;;;;5065986;28;19929;-61
2024/04/02 09:46:42;;;;;;;;;;;26.00;36.50;;;;;;5061263;28;20902;-60
2024/04/02 09:49:09;;;;;;;;;;;26.00;36.70;;;;;;5059858;28;19932;-61
2024/04/02 09:51:36;;;;;;;;;;;26.00;36.60;;;;;;5060980;28;19928;-60
2024/04/02 09:54:03;;;;;;;;;;;25.90;36.10;;;;;;5065502;28;19924;-61
2024/04/02 09:56:33;;;;;;;;;;;26.00;36.40;;;;;;5063808;28;19933;-60
2024/04/02 09:59:02;;;;;;;;;;;26.00;36.40;;;;;;5058563;28;19945;-61
2024/04/02 10:01:31;;;;;;;;;;;26.00;36.40;;;;;;5062355;28;19936;-61
2024/04/02 10:04:00;;;;;;;;;;;26.00;36.40;;;;;;5060583;28;20002;-61
2024/04/02 10:06:26;;;;;;;;;;;26.10;36.30;;;;;;5060651;28;19929;-60
2024/04/02 10:09:12;;;;;;;;;;;26.10;36.10;;;;;;5061076;28;20001;-60
2024/04/02 10:11:42;;;;;;;;;;;26.10;36.00;;;;;;5056737;28;20192;-60
2024/04/02 10:14:08;;;;;;;;;;;26.10;35.60;;;;;;5051220;28;19939;-61
2024/04/02 10:16:35;;;;;;;;;;;26.10;36.10;;;;;;5067270;28;19925;-61
2024/04/02 10:19:02;;;;;;;;;;;26.20;35.70;;;;;;5047496;28;19959;-61
2024/04/02 10:21:32;;;;;;;;;;;26.20;35.50;;;;;;5060774;28;19936;-61
2024/04/02 10:23:58;;;;;;;;;;;26.20;35.50;;;;;;5060642;28;19954;-59
2024/04/02 10:26:30;;;;;;;;;;;26.20;35.10;;;;;;5060135;28;20010;-60
2024/04/02 10:28:55;;;;;;;;;;;26.10;35.30;;;;;;5056601;28;19928;-60
2024/04/02 10:31:21;;;;;;;;;;;26.10;35.50;;;;;;5059205;28;19932;-62
2024/04/02 10:33:48;;;;;;;;;;;26.10;35.70;;;;;;5056931;28;19932;-61
2024/04/02 10:36:14;;;;;;;;;;;26.10;35.40;;;;;;5065618;28;19932;-62
2024/04/02 10:38:40;;;;;;;;;;;26.10;35.60;;;;;;5061568;28;20174;-63
2024/04/02 10:41:06;;;;;;;;;;;26.10;34.80;;;;;;5066393;28;20411;-65
2024/04/02 10:43:32;;;;;;;;;;;26.10;35.20;;;;;;5058659;28;19933;-64
2024/04/02 10:45:58;;;;;;;;;;;26.00;35.30;;;;;;5064557;28;20289;-62
2024/04/02 10:48:25;;;;;;;;;;;26.00;35.90;;;;;;5055305;28;19925;-62
2024/04/02 10:50:51;;;;;;;;;;;26.00;35.50;;;;;;5059004;28;20167;-63
2024/04/02 10:53:17;;;;;;;;;;;26.10;35.60;;;;;;5055187;28;19925;-63
2024/04/02 10:55:43;;;;;;;;;;;26.10;35.50;;;;;;5058727;28;19933;-63
2024/04/02 10:58:10;;;;;;;;;;;26.10;35.30;;;;;;5054883;28;19924;-63
2024/04/02 11:00:36;;;;;;;;;;;26.10;34.60;;;;;;5054105;28;20434;-63
2024/04/02 11:03:03;;;;;;;;;;;26.20;34.10;;;;;;5059043;28;19929;-62
2024/04/02 11:05:29;;;;;;;;;;;26.20;35.30;;;;;;5055757;28;19924;-62
2024/04/02 11:07:56;;;;;;;;;;;26.20;34.70;;;;;;5057096;28;19935;-61
2024/04/02 11:10:22;;;;;;;;;;;26.20;34.70;;;;;;5055161;28;19932;-61
2024/04/02 11:12:48;;;;;;;;;;;26.20;34.70;;;;;;5073010;28;20433;-60
2024/04/02 11:15:16;;;;;;;;;;;26.20;35.00;;;;;;5057327;28;19932;-61
2024/04/02 11:17:42;;;;;;;;;;;26.20;34.60;;;;;;5056094;28;19955;-59
2024/04/02 11:20:09;;;;;;;;;;;26.20;34.30;;;;;;5057025;28;19928;-58
2024/04/02 11:25:22;;;;;;;;;;;26.20;33.00;;;;;;5061966;28;19933;-59
2024/04/02 11:27:48;;;;;;;;;;;26.10;33.70;;;;;;5058898;28;19951;-59
2024/04/02 11:30:16;;;;;;;;;;;26.10;34.30;;;;;;5057398;28;19925;-59
2024/04/02 11:32:42;;;;;;;;;;;26.10;33.70;;;;;;5056592;28;19955;-59
2024/04/02 11:35:15;;;;;;;;;;;26.10;33.70;;;;;;5052118;28;19932;-59
2024/04/02 11:37:41;;;;;;;;;;;26.10;34.20;;;;;;5060516;28;19929;-59
2024/04/02 11:40:09;;;;;;;;;;;26.20;34.50;;;;;;5055722;28;20611;-58
2024/04/02 11:42:35;;;;;;;;;;;26.30;34.40;;;;;;5062016;28;19948;-59
2024/04/02 11:45:01;;;;;;;;;;;26.30;34.40;;;;;;5061440;28;20401;-60
2024/04/02 11:47:27;;;;;;;;;;;26.40;34.40;;;;;;5041764;28;19935;-59
2024/04/02 11:49:53;;;;;;;;;;;26.50;34.50;;;;;;5054282;28;19932;-59
2024/04/02 11:52:19;;;;;;;;;;;26.50;34.30;;;;;;5035913;28;19993;-59
2024/04/02 11:54:45;;;;;;;;;;;26.60;34.10;;;;;;5041914;28;20015;-60
2024/04/02 12:00:14;;;;;;;;;;;26.60;32.10;;;;;;5057640;28;19929;-60
2024/04/02 12:02:41;;;;;;;;;;;26.60;32.20;;;;;;5057448;28;19943;-59
2024/04/02 12:05:07;;;;;;;;;;;26.60;32.30;;;;;;5052092;28;19932;-59
2024/04/02 12:07:33;;;;;;;;;;;26.60;32.50;;;;;;5034631;28;19924;-58
2024/04/02 12:10:02;;;;;;;;;;;26.50;33.30;;;;;;5052306;28;20027;-59
2024/04/02 12:12:28;;;;;;;;;;;26.50;33.80;;;;;;5037507;28;19933;-61
2024/04/02 12:14:54;;;;;;;;;;;26.50;33.90;;;;;;5026891;28;19932;-61
2024/04/02 12:17:23;;;;;;;;;;;26.50;33.70;;;;;;5061072;28;19947;-62
2024/04/02 12:19:55;;;;;;;;;;;26.50;34.00;;;;;;5058738;28;20021;-61
2024/04/02 12:22:21;;;;;;;;;;;26.50;34.10;;;;;;5064950;28;19933;-62
2024/04/02 12:24:47;;;;;;;;;;;26.50;33.70;;;;;;5063028;28;19925;-60
2024/04/02 12:27:13;;;;;;;;;;;26.40;32.80;;;;;;5062214;28;19977;-60
2024/04/02 12:29:39;;;;;;;;;;;26.30;32.40;;;;;;5055794;28;19932;-60
2024/04/02 12:32:07;;;;;;;;;;;26.10;32.80;;;;;;5056386;28;20378;-59
2024/04/02 12:34:33;;;;;;;;;;;26.00;32.70;;;;;;5054471;28;19928;-60
2024/04/02 12:37:00;;;;;;;;;;;25.90;32.40;;;;;;5045392;28;19924;-60
2024/04/02 12:39:26;;;;;;;;;;;25.90;32.70;;;;;;5064884;28;19970;-62
2024/04/02 12:41:52;;;;;;;;;;;25.80;32.00;;;;;;5060700;28;19929;-61
2024/04/02 12:44:18;;;;;;;;;;;25.70;31.90;;;;;;5057390;28;19973;-61
2024/04/02 12:46:44;;;;;;;;;;;25.60;31.80;;;;;;5055185;28;19998;-60
2024/04/02 12:49:10;;;;;;;;;;;25.50;32.10;;;;;;5062799;28;19939;-62
2024/04/02 12:51:36;;;;;;;;;;;25.30;32.40;;;;;;5062582;28;19924;-60
2024/04/02 12:54:02;;;;;;;;;;;25.20;32.50;;;;;;5059610;28;19928;-62
2024/04/02 12:56:28;;;;;;;;;;;25.10;32.80;;;;;;5055245;28;20073;-61
2024/04/02 12:58:55;;;;;;;;;;;25.00;33.60;;;;;;5062558;28;19936;-61
2024/04/02 13:01:20;;;;;;;;;;;25.00;34.40;;;;;;5060673;28;19931;-61
2024/04/02 13:06:18;;;;;;;;;;;25.10;35.30;;;;;;5058217;28;19928;-61
2024/04/02 13:08:47;;;;;;;;;;;25.10;35.40;;;;;;5055720;28;19954;-62
2024/04/02 13:11:14;;;;;;;;;;;25.20;35.40;;;;;;5054527;28;19928;-59
2024/04/02 13:13:42;;;;;;;;;;;25.20;35.50;;;;;;5058620;28;20382;-59
2024/04/02 13:16:33;;;;;;;;;;;25.30;35.50;;;;;;5062135;28;20392;-59
2024/04/02 13:19:09;;;;;;;;;;;25.40;35.30;;;;;;5059086;28;19925;-59
2024/04/02 13:21:35;;;;;;;;;;;25.40;35.30;;;;;;5057257;28;19959;-59
2024/04/02 13:24:02;;;;;;;;;;;25.50;35.30;;;;;;5040877;28;19925;-59
2024/04/02 13:26:28;;;;;;;;;;;25.50;35.20;;;;;;5042010;28;19929;-59
2024/04/02 13:28:58;;;;;;;;;;;25.60;35.30;;;;;;5058874;28;19933;-59
2024/04/02 13:31:25;;;;;;;;;;;25.70;35.40;;;;;;5055234;28;19931;-59
2024/04/02 13:33:51;;;;;;;;;;;25.70;35.50;;;;;;5059752;28;19932;-58
2024/04/02 13:36:18;;;;;;;;;;;25.70;35.60;;;;;;5057388;28;19940;-58
2024/04/02 13:38:48;;;;;;;;;;;25.70;35.30;;;;;;5040839;28;19940;-59
2024/04/02 13:41:14;;;;;;;;;;;25.60;35.10;;;;;;5061856;28;19929;-59
2024/04/02 13:43:40;;;;;;;;;;;25.50;35.60;;;;;;5056803;28;19933;-58
2024/04/02 13:46:06;;;;;;;;;;;25.50;35.80;;;;;;5059517;28;20017;-58
2024/04/02 13:48:33;;;;;;;;;;;25.60;36.00;;;;;;5058117;28;19928;-57
2024/04/02 13:51:08;;;;;;;;;;;25.60;36.10;;;;;;5056504;28;20386;-57
2024/04/02 13:53:35;;;;;;;;;;;25.60;36.40;;;;;;5059793;28;19932;-59
2024/04/02 13:56:02;;;;;;;;;;;25.60;36.80;;;;;;5074702;28;19928;-53
2024/04/02 13:58:28;;;;;;;;;;;25.60;37.00;;;;;;5059621;28;20010;-57
2024/04/02 14:00:54;;;;;;;;;;;25.70;37.10;;;;;;5054249;28;19925;-58
2024/04/02 14:03:20;;;;;;;;;;;25.70;37.20;;;;;;5059880;28;19932;-58
2024/04/02 14:05:53;;;;;;;;;;;25.70;37.00;;;;;;5058211;28;19932;-59
2024/04/02 14:08:19;;;;;;;;;;;25.70;36.90;;;;;;5054975;28;20023;-58
2024/04/02 14:10:45;;;;;;;;;;;25.70;36.80;;;;;;5057144;28;19933;-59
2024/04/02 14:13:16;;;;;;;;;;;25.80;36.90;;;;;;5056561;28;19940;-59
2024/04/02 14:15:42;;;;;;;;;;;25.80;36.90;;;;;;5057162;28;19925;-59
2024/04/02 14:18:08;;;;;;;;;;;25.80;36.80;;;;;;5061002;28;19951;-59
2024/04/02 14:20:33;;;;;;;;;;;25.80;36.90;;;;;;5057020;28;19929;-59